createdAt,value
2018-02-02T00:00:37.341Z,99722.91
2018-02-02T00:03:03.118Z,99727.70
2018-02-02T00:05:28.923Z,99729.21
2018-02-02T00:07:54.706Z,99730.47
2018-02-02T00:10:20.469Z,99726.31
2018-02-02T00:12:46.257Z,99736.05
2018-02-02T00:15:19.825Z,99737.89
2018-02-02T00:17:46.400Z,99738.19
2018-02-02T00:20:12.169Z,99736.93
2018-02-02T00:22:37.939Z,99736.25
2018-02-02T00:25:03.712Z,99728.83
2018-02-02T00:27:29.517Z,99728.16
2018-02-02T00:29:56.341Z,99732.44
2018-02-02T00:32:23.138Z,99730.21
2018-02-02T00:34:48.909Z,99719.92
2018-02-02T00:37:14.718Z,99719.72
2018-02-02T00:39:41.424Z,99726.64
2018-02-02T00:42:08.242Z,99717.70
2018-02-02T00:44:34.953Z,99719.17
2018-02-02T00:47:00.726Z,99726.87
2018-02-02T00:49:26.549Z,99718.23
2018-02-02T00:51:59.413Z,99720.22
2018-02-02T00:54:25.185Z,99722.07
2018-02-02T00:56:50.961Z,99725.71
2018-02-02T00:59:16.761Z,99723.45
2018-02-02T01:01:42.540Z,99732.11
2018-02-02T01:04:08.348Z,99736.72
2018-02-02T01:06:34.113Z,99737.21
2018-02-02T01:08:59.928Z,99739.28
2018-02-02T01:11:26.660Z,99734.70
2018-02-02T01:13:52.420Z,99744.21
2018-02-02T01:16:18.192Z,99742.62
2018-02-02T01:18:43.961Z,99745.81
2018-02-02T01:21:09.729Z,99744.55
2018-02-02T01:23:35.501Z,99746.19
2018-02-02T01:26:01.273Z,99741.94
2018-02-02T01:28:27.045Z,99747.34
2018-02-02T01:30:52.809Z,99740.53
2018-02-02T01:33:18.572Z,99742.72
2018-02-02T01:35:45.206Z,99737.61
2018-02-02T01:38:11.993Z,99744.56
2018-02-02T01:40:38.766Z,99740.55
2018-02-02T01:43:05.473Z,99742.91
2018-02-02T01:45:32.142Z,99735.05
2018-02-02T01:48:04.160Z,99738.77
2018-02-02T01:50:30.855Z,99737.09
2018-02-02T01:52:56.633Z,99738.69
2018-02-02T01:55:22.557Z,99743.13
2018-02-02T01:57:48.333Z,99743.68
2018-02-02T02:00:15.014Z,99741.53
2018-02-02T02:02:41.609Z,99743.39
2018-02-02T02:05:08.409Z,99747.75
2018-02-02T02:07:34.444Z,99758.48
2018-02-02T02:10:01.169Z,99752.98
2018-02-02T02:12:26.940Z,99752.01
2018-02-02T02:14:52.741Z,99754.92
2018-02-02T02:17:19.664Z,99749.91
2018-02-02T02:19:46.350Z,99756.73
2018-02-02T02:22:13.090Z,99758.41
2018-02-02T02:24:39.833Z,99754.83
2018-02-02T02:27:05.637Z,99751.45
2018-02-02T02:29:31.426Z,99751.38
2018-02-02T02:31:57.312Z,99744.45
2018-02-02T02:34:23.080Z,99744.21
2018-02-02T02:36:48.845Z,99747.70
2018-02-02T02:39:14.664Z,99749.83
2018-02-02T02:41:41.302Z,99753.46
2018-02-02T02:44:07.070Z,99748.82
2018-02-02T02:46:32.844Z,99745.25
2018-02-02T02:48:58.650Z,99748.33
2018-02-02T02:51:25.361Z,99752.78
2018-02-02T02:53:51.133Z,99753.80
2018-02-02T02:56:16.897Z,99758.31
2018-02-02T02:58:42.673Z,99762.25
2018-02-02T03:01:08.449Z,99762.00
2018-02-02T03:03:34.261Z,99761.23
2018-02-02T03:06:00.041Z,99757.98
2018-02-02T03:08:25.870Z,99765.81
2018-02-02T03:10:51.641Z,99764.29
2018-02-02T03:13:17.421Z,99765.59
2018-02-02T03:15:43.193Z,99768.61
2018-02-02T03:18:08.977Z,99768.17
2018-02-02T03:20:34.749Z,99767.52
2018-02-02T03:23:00.570Z,99762.48
2018-02-02T03:25:26.369Z,99773.93
2018-02-02T03:27:52.166Z,99768.80
2018-02-02T03:30:17.941Z,99777.75
2018-02-02T03:32:43.720Z,99773.45
2018-02-02T03:35:09.498Z,99779.77
2018-02-02T03:37:35.277Z,99780.24
2018-02-02T03:40:01.048Z,99781.09
2018-02-02T03:42:26.816Z,99783.64
2018-02-02T03:44:52.592Z,99778.67
2018-02-02T03:47:18.364Z,99777.42
2018-02-02T03:49:44.132Z,99782.41
2018-02-02T03:52:09.909Z,99782.95
2018-02-02T03:54:35.680Z,99769.41
2018-02-02T03:57:01.457Z,99779.76
2018-02-02T03:59:27.650Z,99782.13
2018-02-02T04:01:53.505Z,99786.14
2018-02-02T04:04:19.281Z,99785.52
2018-02-02T04:06:45.058Z,99785.74
2018-02-02T04:09:10.833Z,99781.15
2018-02-02T04:11:36.604Z,99785.03
2018-02-02T04:14:02.413Z,99777.27
2018-02-02T04:16:28.189Z,99787.82
2018-02-02T04:18:53.969Z,99790.46
2018-02-02T04:21:19.736Z,99790.03
2018-02-02T04:23:45.513Z,99782.88
2018-02-02T04:26:11.285Z,99783.92
2018-02-02T04:28:37.093Z,99792.53
2018-02-02T04:31:03.706Z,99792.41
2018-02-02T04:33:29.498Z,99795.50
2018-02-02T04:35:56.228Z,99793.84
2018-02-02T04:38:22.016Z,99796.22
2018-02-02T04:40:47.789Z,99794.75
2018-02-02T04:43:13.599Z,99799.69
2018-02-02T04:45:39.390Z,99794.12
2018-02-02T04:48:05.194Z,99805.98
2018-02-02T04:50:30.971Z,99808.27
2018-02-02T04:52:56.746Z,99798.56
2018-02-02T04:55:22.620Z,99798.50
2018-02-02T04:57:48.378Z,99810.01
2018-02-02T05:00:14.156Z,99806.55
2018-02-02T05:02:39.954Z,99804.27
2018-02-02T05:05:05.882Z,99802.02
2018-02-02T05:07:31.649Z,99800.52
2018-02-02T05:09:57.428Z,99805.30
2018-02-02T05:12:23.217Z,99804.66
2018-02-02T05:14:48.993Z,99809.33
2018-02-02T05:17:14.770Z,99811.41
2018-02-02T05:19:40.557Z,99807.26
2018-02-02T05:22:06.324Z,99804.25
2018-02-02T05:24:32.094Z,99799.12
2018-02-02T05:26:57.897Z,99802.92
2018-02-02T05:29:23.673Z,99800.78
2018-02-02T05:31:49.465Z,99807.86
2018-02-02T05:34:15.237Z,99810.57
2018-02-02T05:36:41.022Z,99806.69
2018-02-02T05:39:06.926Z,99806.96
2018-02-02T05:41:32.705Z,99808.35
2018-02-02T05:43:58.485Z,99813.28
2018-02-02T05:46:24.264Z,99804.95
2018-02-02T05:48:50.073Z,99807.78
2018-02-02T05:51:15.852Z,99809.33
2018-02-02T05:53:41.665Z,99807.88
2018-02-02T05:56:07.438Z,99814.53
2018-02-02T05:58:33.473Z,99811.89
2018-02-02T06:00:59.324Z,99814.69
2018-02-02T06:03:25.080Z,99817.11
2018-02-02T06:05:50.898Z,99820.09
2018-02-02T06:08:16.710Z,99815.25
2018-02-02T06:10:42.493Z,99819.79
2018-02-02T06:13:08.317Z,99822.31
2018-02-02T06:15:34.093Z,99820.38
2018-02-02T06:17:59.869Z,99823.27
2018-02-02T06:20:25.682Z,99827.03
2018-02-02T06:22:51.473Z,99826.55
2018-02-02T06:25:17.248Z,99825.56
2018-02-02T06:27:43.129Z,99830.98
2018-02-02T06:30:08.942Z,99829.86
2018-02-02T06:32:34.718Z,99828.62
2018-02-02T06:35:00.502Z,99830.42
2018-02-02T06:37:26.281Z,99824.17
2018-02-02T06:39:52.062Z,99834.03
2018-02-02T06:42:17.836Z,99827.98
2018-02-02T06:44:43.770Z,99831.33
2018-02-02T06:47:09.541Z,99832.98
2018-02-02T06:49:35.314Z,99829.38
2018-02-02T06:52:01.101Z,99837.09
2018-02-02T06:54:26.881Z,99839.88
2018-02-02T06:56:52.657Z,99842.06
2018-02-02T06:59:18.476Z,99838.74
2018-02-02T07:01:44.253Z,99847.06
2018-02-02T07:04:10.037Z,99841.58
2018-02-02T07:06:35.845Z,99841.31
2018-02-02T07:09:01.631Z,99844.09
2018-02-02T07:11:27.422Z,99851.47
2018-02-02T07:13:53.197Z,99854.91
2018-02-02T07:16:18.985Z,99853.25
2018-02-02T07:18:44.813Z,99859.92
2018-02-02T07:21:10.592Z,99854.34
2018-02-02T07:23:36.375Z,99853.17
2018-02-02T07:26:02.148Z,99852.69
2018-02-02T07:28:27.922Z,99857.63
2018-02-02T07:30:53.740Z,99857.28
2018-02-02T07:33:19.668Z,99855.20
2018-02-02T07:35:45.445Z,99849.45
2018-02-02T07:38:11.250Z,99856.94
2018-02-02T07:40:37.060Z,99854.49
2018-02-02T07:43:02.845Z,99857.47
2018-02-02T07:45:28.618Z,99850.77
2018-02-02T07:47:54.403Z,99849.11
2018-02-02T07:50:20.357Z,99843.34
2018-02-02T07:52:46.153Z,99843.61
2018-02-02T07:55:11.924Z,99848.66
2018-02-02T07:57:37.699Z,99848.13
2018-02-02T08:00:03.525Z,99852.84
2018-02-02T08:02:30.221Z,99854.83
2018-02-02T08:04:56.003Z,99855.81
2018-02-02T08:07:21.773Z,99854.23
2018-02-02T08:09:47.681Z,99852.69
2018-02-02T08:12:13.457Z,99853.52
2018-02-02T08:14:39.237Z,99860.11
2018-02-02T08:17:05.150Z,99857.89
2018-02-02T08:19:31.057Z,99859.43
2018-02-02T08:21:56.905Z,99855.31
2018-02-02T08:24:22.689Z,99851.59
2018-02-02T08:26:48.485Z,99857.96
2018-02-02T08:29:14.265Z,99850.69
2018-02-02T08:31:40.061Z,99859.19
2018-02-02T08:34:05.842Z,99856.37
2018-02-02T08:36:31.609Z,99857.06
2018-02-02T08:38:57.394Z,99857.97
2018-02-02T08:41:23.170Z,99856.37
2018-02-02T08:43:48.965Z,99858.53
2018-02-02T08:46:14.788Z,99857.99
2018-02-02T08:48:40.614Z,99855.47
2018-02-02T08:51:06.623Z,99862.47
2018-02-02T08:53:32.450Z,99864.52
2018-02-02T08:55:58.238Z,99863.72
2018-02-02T08:58:24.018Z,99864.14
2018-02-02T09:00:56.112Z,99860.60
2018-02-02T09:03:21.897Z,99865.88
2018-02-02T09:05:47.705Z,99865.05
2018-02-02T09:08:13.486Z,99868.69
2018-02-02T09:10:39.460Z,99868.59
2018-02-02T09:13:05.242Z,99867.01
2018-02-02T09:15:31.406Z,99864.55
2018-02-02T09:17:57.627Z,99859.69
2018-02-02T09:20:23.408Z,99869.83
2018-02-02T09:22:49.182Z,99862.91
2018-02-02T09:25:14.953Z,99869.19
2018-02-02T09:27:40.809Z,99861.41
2018-02-02T09:30:07.732Z,99863.94
2018-02-02T09:32:33.517Z,99866.42
2018-02-02T09:34:59.305Z,99861.36
2018-02-02T09:37:25.089Z,99867.73
2018-02-02T09:39:50.998Z,99863.10
2018-02-02T09:42:16.789Z,99864.93
2018-02-02T09:44:42.580Z,99862.30
2018-02-02T09:47:08.366Z,99858.48
2018-02-02T09:49:35.296Z,99865.02
2018-02-02T09:52:01.077Z,99865.46
2018-02-02T09:54:26.899Z,99867.28
2018-02-02T09:56:52.683Z,99865.41
2018-02-02T09:59:18.457Z,99866.70
2018-02-02T10:01:44.280Z,99866.01
2018-02-02T10:04:10.074Z,99860.09
2018-02-02T10:06:35.893Z,99866.92
2018-02-02T10:09:01.726Z,99861.25
2018-02-02T10:11:27.629Z,99864.34
2018-02-02T10:13:53.602Z,99863.27
2018-02-02T10:16:19.378Z,99862.92
2018-02-02T10:18:45.188Z,99860.45
2018-02-02T10:21:11.009Z,99860.15
2018-02-02T10:23:36.881Z,99859.73
2018-02-02T10:26:02.696Z,99857.14
2018-02-02T10:28:28.515Z,99856.94
2018-02-02T10:30:54.305Z,99851.47
2018-02-02T10:33:20.293Z,99851.14
2018-02-02T10:35:46.082Z,99850.64
2018-02-02T10:38:11.998Z,99847.63
2018-02-02T10:40:37.856Z,99851.52
2018-02-02T10:43:03.638Z,99853.20
2018-02-02T10:45:29.460Z,99845.06
2018-02-02T10:47:55.229Z,99846.47
2018-02-02T10:50:21.057Z,99847.20
2018-02-02T10:52:46.909Z,99851.89
2018-02-02T10:55:12.692Z,99854.23
2018-02-02T10:57:38.518Z,99849.47
2018-02-02T11:00:04.305Z,99844.45
2018-02-02T11:02:36.252Z,99841.23
2018-02-02T11:05:02.042Z,99842.06
2018-02-02T11:07:27.869Z,99835.03
2018-02-02T11:09:53.699Z,99833.94
2018-02-02T11:12:19.494Z,99830.02
2018-02-02T11:14:45.507Z,99827.45
2018-02-02T11:17:11.310Z,99833.66
2018-02-02T11:19:37.089Z,99821.75
2018-02-02T11:22:02.883Z,99818.08
2018-02-02T11:24:28.703Z,99816.70
2018-02-02T11:26:54.538Z,99814.69
2018-02-02T11:29:20.322Z,99808.93
2018-02-02T11:31:46.103Z,99805.98
2018-02-02T11:34:11.917Z,99811.91
2018-02-02T11:36:37.862Z,99810.02
2018-02-02T11:39:04.018Z,99812.16
2018-02-02T11:41:29.834Z,99806.06
2018-02-02T11:43:55.785Z,99802.47
2018-02-02T11:46:21.706Z,99796.70
2018-02-02T11:48:47.584Z,99800.34
2018-02-02T11:51:13.357Z,99806.16
2018-02-02T11:53:39.130Z,99807.94
2018-02-02T11:56:05.102Z,99808.41
2018-02-02T11:58:30.882Z,99804.13
2018-02-02T12:00:56.681Z,99808.70
2018-02-02T12:03:22.458Z,99808.73
2018-02-02T12:05:48.253Z,99807.02
2018-02-02T12:08:14.037Z,99810.63
2018-02-02T12:10:39.815Z,99813.42
2018-02-02T12:13:05.599Z,99810.42
2018-02-02T12:15:31.497Z,99804.50
2018-02-02T12:17:57.365Z,99805.87
2018-02-02T12:20:23.154Z,99806.64
2018-02-02T12:22:52.042Z,99805.70
2018-02-02T12:25:23.990Z,99803.76
2018-02-02T12:27:55.926Z,99797.45
2018-02-02T12:33:31.898Z,99803.47
2018-02-02T12:36:02.598Z,99801.78
2018-02-02T12:38:28.393Z,99802.20
2018-02-02T12:40:54.202Z,99801.50
2018-02-02T12:43:20.011Z,99796.20
2018-02-02T12:45:45.785Z,99798.59
2018-02-02T12:48:11.765Z,99790.11
2018-02-02T12:50:43.839Z,99789.98
2018-02-02T12:53:09.652Z,99783.69
2018-02-02T12:55:35.470Z,99785.69
2018-02-02T12:58:01.255Z,99788.72
2018-02-02T13:00:27.066Z,99790.66
2018-02-02T13:02:52.840Z,99785.63
2018-02-02T13:05:18.797Z,99783.09
2018-02-02T13:07:44.638Z,99781.74
2018-02-02T13:10:10.537Z,99784.67
2018-02-02T13:12:36.353Z,99783.22
2018-02-02T13:15:02.137Z,99783.08
2018-02-02T13:17:28.057Z,99779.45
2018-02-02T13:19:53.835Z,99790.54
2018-02-02T13:22:19.614Z,99781.72
2018-02-02T13:24:45.429Z,99784.38
2018-02-02T13:27:11.213Z,99781.81
2018-02-02T13:29:36.987Z,99780.06
2018-02-02T13:32:02.766Z,99781.25
2018-02-02T13:34:28.644Z,99789.42
2018-02-02T13:36:54.568Z,99784.95
2018-02-02T13:39:20.381Z,99784.73
2018-02-02T13:41:46.199Z,99785.47
2018-02-02T13:44:11.973Z,99782.73
2018-02-02T13:46:37.754Z,99779.47
2018-02-02T13:49:03.718Z,99781.98
2018-02-02T13:51:29.472Z,99782.52
2018-02-02T13:53:55.249Z,99786.36
2018-02-02T13:56:21.113Z,99785.80
2018-02-02T13:58:46.886Z,99782.59
2018-02-02T14:01:12.730Z,99787.34
2018-02-02T14:03:38.507Z,99784.70
2018-02-02T14:06:04.412Z,99783.58
2018-02-02T14:08:30.194Z,99783.30
2018-02-02T14:10:55.977Z,99773.03
2018-02-02T14:13:21.893Z,99773.86
2018-02-02T14:15:47.669Z,99776.83
2018-02-02T14:18:13.451Z,99780.59
2018-02-02T14:20:39.317Z,99773.52
2018-02-02T14:23:05.085Z,99771.94
2018-02-02T14:25:30.869Z,99772.05
2018-02-02T14:27:56.654Z,99769.56
2018-02-02T14:30:22.438Z,99772.42
2018-02-02T14:32:48.218Z,99767.27
2018-02-02T14:35:14.001Z,99767.68
2018-02-02T14:37:39.774Z,99775.62
2018-02-02T14:40:05.553Z,99770.61
2018-02-02T14:42:31.330Z,99780.89
2018-02-02T14:44:57.159Z,99780.06
2018-02-02T14:47:22.950Z,99777.05
2018-02-02T14:49:48.737Z,99780.19
2018-02-02T14:52:14.517Z,99780.33
2018-02-02T14:54:40.292Z,99779.20
2018-02-02T14:57:06.072Z,99778.67
2018-02-02T14:59:31.917Z,99776.98
2018-02-02T15:01:57.754Z,99781.84
2018-02-02T15:04:23.534Z,99782.97
2018-02-02T15:06:49.481Z,99781.98
2018-02-02T15:09:15.254Z,99782.25
2018-02-02T15:11:41.026Z,99780.59
2018-02-02T15:14:06.814Z,99778.45
2018-02-02T15:16:32.604Z,99789.21
2018-02-02T15:18:58.384Z,99782.19
2018-02-02T15:21:24.170Z,99777.88
2018-02-02T15:23:49.969Z,99778.03
2018-02-02T15:26:15.839Z,99773.81
2018-02-02T15:28:41.614Z,99782.55
2018-02-02T15:31:07.441Z,99780.74
2018-02-02T15:33:33.222Z,99785.94
2018-02-02T15:35:59.038Z,99786.77
2018-02-02T15:38:24.820Z,99792.76
2018-02-02T15:40:50.646Z,99789.14
2018-02-02T15:43:16.421Z,99797.88
2018-02-02T15:45:42.247Z,99802.33
2018-02-02T15:48:08.103Z,99805.08
2018-02-02T15:50:33.923Z,99805.03
2018-02-02T15:52:59.872Z,99808.00
2018-02-02T15:55:25.652Z,99807.11
2018-02-02T15:57:51.436Z,99807.23
2018-02-02T16:00:17.235Z,99806.36
2018-02-02T16:02:43.011Z,99812.53
2018-02-02T16:05:08.822Z,99810.58
2018-02-02T16:07:34.597Z,99811.25
2018-02-02T16:10:00.370Z,99818.75
2018-02-02T16:12:26.162Z,99812.53
2018-02-02T16:14:51.937Z,99817.58
2018-02-02T16:17:17.941Z,99819.46
2018-02-02T16:19:43.762Z,99825.00
2018-02-02T16:22:09.689Z,99823.49
2018-02-02T16:24:35.480Z,99820.63
2018-02-02T16:27:04.110Z,99810.23
2018-02-02T16:29:29.937Z,99819.16
2018-02-02T16:31:56.683Z,99815.63
2018-02-02T16:34:22.457Z,99821.27
2018-02-02T16:36:48.287Z,99821.95
2018-02-02T16:39:14.077Z,99827.30
2018-02-02T16:41:39.877Z,99827.59
2018-02-02T16:44:05.685Z,99830.50
2018-02-02T16:46:31.478Z,99844.66
2018-02-02T16:48:57.290Z,99841.95
2018-02-02T16:51:23.094Z,99843.61
2018-02-02T16:53:48.926Z,99849.03
2018-02-02T16:56:14.701Z,99854.50
2018-02-02T16:58:42.517Z,99850.55
2018-02-02T17:01:08.354Z,99853.55
2018-02-02T17:03:34.158Z,99859.02
2018-02-02T17:05:59.966Z,99858.79
2018-02-02T17:08:25.864Z,99861.31
2018-02-02T17:10:51.689Z,99865.45
2018-02-02T17:13:17.490Z,99866.09
2018-02-02T17:15:43.269Z,99862.63
2018-02-02T17:18:09.045Z,99857.44
2018-02-02T17:20:34.824Z,99861.43
2018-02-02T17:23:00.677Z,99858.38
2018-02-02T17:25:26.438Z,99860.33
2018-02-02T17:27:52.325Z,99865.05
2018-02-02T17:30:18.102Z,99860.56
2018-02-02T17:32:43.995Z,99859.02
2018-02-02T17:35:09.774Z,99859.08
2018-02-02T17:37:35.555Z,99859.20
2018-02-02T17:40:01.331Z,99858.87
2018-02-02T17:42:27.102Z,99854.30
2018-02-02T17:44:52.875Z,99856.65
2018-02-02T17:47:18.659Z,99856.37
2018-02-02T17:49:44.481Z,99852.77
2018-02-02T17:52:10.348Z,99859.09
2018-02-02T17:54:36.122Z,99862.97
2018-02-02T17:57:01.909Z,99861.50
2018-02-02T17:59:27.697Z,99866.44
2018-02-02T18:01:53.490Z,99865.84
2018-02-02T18:04:19.290Z,99859.84
2018-02-02T18:06:45.081Z,99869.08
2018-02-02T18:09:10.855Z,99860.67
2018-02-02T18:11:36.646Z,99867.95
2018-02-02T18:14:02.426Z,99859.98
2018-02-02T18:16:28.254Z,99865.12
2018-02-02T18:18:54.152Z,99865.75
2018-02-02T18:21:19.938Z,99861.84
2018-02-02T18:23:45.717Z,99862.41
2018-02-02T18:26:11.505Z,99865.94
2018-02-02T18:28:37.435Z,99860.52
2018-02-02T18:31:03.210Z,99854.98
2018-02-02T18:33:29.009Z,99854.16
2018-02-02T18:35:54.784Z,99855.70
2018-02-02T18:38:20.570Z,99849.64
2018-02-02T18:40:46.375Z,99849.94
2018-02-02T18:43:12.151Z,99853.81
2018-02-02T18:45:38.090Z,99859.70
2018-02-02T18:48:03.869Z,99857.55
2018-02-02T18:50:29.662Z,99857.63
2018-02-02T18:52:55.482Z,99857.88
2018-02-02T18:55:21.273Z,99864.48
2018-02-02T18:57:47.049Z,99862.95
2018-02-02T19:00:12.834Z,99862.67
2018-02-02T19:02:38.620Z,99854.83
2018-02-02T19:05:04.547Z,99853.39
2018-02-02T19:07:30.330Z,99859.50
2018-02-02T19:09:56.153Z,99860.75
2018-02-02T19:12:22.001Z,99859.01
2018-02-02T19:14:47.950Z,99856.08
2018-02-02T19:17:13.730Z,99857.34
2018-02-02T19:19:39.548Z,99859.16
2018-02-02T19:22:05.325Z,99854.98
2018-02-02T19:24:31.118Z,99858.11
2018-02-02T19:26:56.894Z,99861.17
2018-02-02T19:29:22.677Z,99860.41
2018-02-02T19:31:48.450Z,99853.52
2018-02-02T19:34:14.313Z,99853.81
2018-02-02T19:36:40.141Z,99855.63
2018-02-02T19:39:05.932Z,99850.35
2018-02-02T19:41:31.713Z,99849.48
2018-02-02T19:43:57.531Z,99843.95
2018-02-02T19:46:23.481Z,99846.44
2018-02-02T19:48:49.317Z,99848.87
2018-02-02T19:51:15.206Z,99848.16
2018-02-02T19:53:40.989Z,99846.73
2018-02-02T19:56:06.861Z,99846.44
2018-02-02T19:58:32.671Z,99843.53
2018-02-02T20:00:58.453Z,99843.95
2018-02-02T20:03:24.242Z,99844.52
2018-02-02T20:05:50.031Z,99845.34
2018-02-02T20:08:15.836Z,99837.84
2018-02-02T20:10:41.655Z,99842.02
2018-02-02T20:13:07.518Z,99837.66
2018-02-02T20:15:33.354Z,99842.48
2018-02-02T20:17:59.133Z,99838.06
2018-02-02T20:20:25.113Z,99832.57
2018-02-02T20:22:50.900Z,99840.48
2018-02-02T20:25:16.905Z,99840.56
2018-02-02T20:27:42.818Z,99845.61
2018-02-02T20:30:08.743Z,99847.72
2018-02-02T20:32:34.529Z,99845.41
2018-02-02T20:35:13.181Z,99845.76
2018-02-02T20:37:39.233Z,99848.55
2018-02-02T20:40:05.057Z,99845.75
2018-02-02T20:42:31.005Z,99845.61
2018-02-02T20:44:56.790Z,99839.99
2018-02-02T20:47:22.786Z,99844.36
2018-02-02T20:49:48.692Z,99844.02
2018-02-02T20:52:14.471Z,99840.89
2018-02-02T20:54:40.290Z,99843.83
2018-02-02T20:57:06.092Z,99852.08
2018-02-02T20:59:32.019Z,99843.53
2018-02-02T21:01:57.950Z,99847.15
2018-02-02T21:04:23.905Z,99846.92
2018-02-02T21:06:49.802Z,99850.39
2018-02-02T21:09:15.739Z,99843.95
2018-02-02T21:11:41.721Z,99851.66
2018-02-02T21:14:07.634Z,99850.05
2018-02-02T21:16:33.570Z,99854.22
2018-02-02T21:18:59.394Z,99855.89
2018-02-02T21:21:25.242Z,99851.71
2018-02-02T21:23:51.073Z,99855.21
2018-02-02T21:26:17.769Z,99854.84
2018-02-02T21:28:44.903Z,99860.11
2018-02-02T21:31:11.921Z,99848.47
2018-02-02T21:33:37.892Z,99846.31
2018-02-02T21:36:03.781Z,99856.16
2018-02-02T21:38:29.660Z,99854.15
2018-02-02T21:40:55.444Z,99854.34
2018-02-02T21:43:22.500Z,99853.93
2018-02-02T21:45:48.426Z,99859.61
2018-02-02T21:48:14.386Z,99859.09
2018-02-02T21:50:40.263Z,99854.23
2018-02-02T21:53:06.129Z,99849.63
2018-02-02T21:55:31.914Z,99845.12
2018-02-02T21:57:57.691Z,99849.48
2018-02-02T22:00:23.589Z,99847.34
2018-02-02T22:02:49.455Z,99840.89
2018-02-02T22:05:15.271Z,99845.41
2018-02-02T22:07:41.098Z,99849.78
2018-02-02T22:10:06.929Z,99851.93
2018-02-02T22:12:32.958Z,99857.13
2018-02-02T22:14:58.875Z,99859.84
2018-02-02T22:17:26.441Z,99863.95
2018-02-02T22:19:52.363Z,99863.80
2018-02-02T22:22:18.328Z,99864.06
2018-02-02T22:24:44.214Z,99869.55
2018-02-02T22:27:10.073Z,99862.89
2018-02-02T22:29:35.862Z,99870.58
2018-02-02T22:32:01.810Z,99871.37
2018-02-02T22:34:27.609Z,99875.17
2018-02-02T22:36:53.570Z,99866.63
2018-02-02T22:39:19.524Z,99870.45
2018-02-02T22:41:45.305Z,99870.17
2018-02-02T22:44:11.267Z,99866.36
2018-02-02T22:46:37.196Z,99863.53
2018-02-02T22:49:02.991Z,99865.76
2018-02-02T22:51:28.820Z,99864.36
2018-02-02T22:53:54.597Z,99865.39
2018-02-02T22:56:20.562Z,99865.46
2018-02-02T22:58:46.394Z,99869.08
2018-02-02T23:01:12.318Z,99867.45
2018-02-02T23:03:38.476Z,99863.53
2018-02-02T23:06:04.407Z,99873.03
2018-02-02T23:08:30.678Z,99866.52
2018-02-02T23:10:56.541Z,99862.41
2018-02-02T23:13:22.320Z,99859.62
2018-02-02T23:15:48.097Z,99864.81
2018-02-02T23:18:13.887Z,99868.17
2018-02-02T23:20:39.669Z,99859.70
2018-02-02T23:23:05.437Z,99859.58
2018-02-02T23:25:31.263Z,99851.78
2018-02-02T23:27:57.069Z,99852.34
2018-02-02T23:30:22.888Z,99864.06
2018-02-02T23:32:48.665Z,99858.59
2018-02-02T23:35:14.487Z,99862.25
2018-02-02T23:37:40.308Z,99860.33
2018-02-02T23:40:06.123Z,99861.02
2018-02-02T23:42:31.919Z,99863.72
2018-02-02T23:44:57.698Z,99859.01
2018-02-02T23:47:23.477Z,99863.72
2018-02-02T23:49:49.265Z,99859.84
2018-02-02T23:52:15.057Z,99857.35
2018-02-02T23:54:40.877Z,99856.37
2018-02-02T23:57:06.669Z,99853.33
2018-02-02T23:59:32.459Z,99852.61
